Time;durP1;ratioP1;P1;durP2;ratioP2;P2;SDS_P1;SDS_P2;PMS_P1;PMS_P2;Temp;Humidity;BMP_temperature;BMP_pressure;BME280_temperature;BME280_humidity;BME280_pressure;Samples;Min_cycle;Max_cycle;Signal;HPM_P1;HPM_P2
2021/12/29 00:01:54;;;;;;;7.68;3.00;;;9.80;99.90;;;;;;5076528;28;20099;-62
2021/12/29 00:04:19;;;;;;;8.75;3.00;;;9.80;99.90;;;;;;5094391;28;20028;-62
2021/12/29 00:06:45;;;;;;;9.98;2.95;;;9.80;99.90;;;;;;5094543;28;20047;-62
2021/12/29 00:09:10;;;;;;;7.65;2.30;;;9.80;99.90;;;;;;5094419;28;20028;-62
2021/12/29 00:11:39;;;;;;;6.78;2.78;;;9.80;99.90;;;;;;5094417;28;20082;-62
2021/12/29 00:14:07;;;;;;;8.60;2.63;;;9.70;99.90;;;;;;5093486;28;20016;-62
2021/12/29 00:16:34;;;;;;;8.38;3.35;;;9.70;99.90;;;;;;5093962;28;20111;-61
2021/12/29 00:19:04;;;;;;;11.90;3.50;;;9.80;99.90;;;;;;5094294;28;20032;-61
2021/12/29 00:21:32;;;;;;;5.78;2.85;;;9.70;99.90;;;;;;5094213;28;20043;-62
2021/12/29 00:23:59;;;;;;;8.95;3.15;;;9.70;99.90;;;;;;5094029;28;20472;-62
2021/12/29 00:26:26;;;;;;;9.73;3.58;;;9.70;99.90;;;;;;5076045;28;20110;-61
2021/12/29 00:28:52;;;;;;;8.68;2.97;;;9.70;99.90;;;;;;5094079;28;20028;-62
2021/12/29 00:31:18;;;;;;;11.43;3.75;;;9.70;99.90;;;;;;5093678;28;20120;-62
2021/12/29 00:33:43;;;;;;;9.75;3.78;;;9.70;99.90;;;;;;5094080;28;20100;-62
2021/12/29 00:36:09;;;;;;;11.02;4.47;;;9.70;99.90;;;;;;5075886;28;20356;-62
2021/12/29 00:38:35;;;;;;;8.48;3.45;;;9.70;99.90;;;;;;5094017;28;20020;-62
2021/12/29 00:41:00;;;;;;;8.77;3.70;;;9.70;99.90;;;;;;5093991;28;20031;-62
2021/12/29 00:43:26;;;;;;;11.55;3.53;;;9.80;99.90;;;;;;5093679;28;20035;-62
2021/12/29 00:45:51;;;;;;;8.68;3.55;;;9.80;99.90;;;;;;5093654;28;20515;-62
2021/12/29 00:48:18;;;;;;;8.98;3.53;;;9.80;99.90;;;;;;5093512;28;20032;-62
2021/12/29 00:50:45;;;;;;;16.05;4.45;;;9.80;99.90;;;;;;5093623;28;20379;-62
2021/12/29 00:53:10;;;;;;;12.02;3.70;;;9.70;99.90;;;;;;5094003;28;20604;-61
2021/12/29 00:55:37;;;;;;;10.93;4.32;;;9.80;99.90;;;;;;5093650;28;20052;-62
2021/12/29 00:58:06;;;;;;;12.68;4.32;;;9.70;99.90;;;;;;5093512;28;20472;-62
2021/12/29 01:00:36;;;;;;;;;;;9.70;99.90;;;;;;5093702;28;20107;-62
2021/12/29 01:03:03;;;;;;;8.68;3.65;;;9.70;99.90;;;;;;5093534;28;19904;-62
2021/12/29 01:05:28;;;;;;;13.55;4.28;;;9.70;99.90;;;;;;5093261;28;20039;-61
2021/12/29 01:07:54;;;;;;;10.13;3.88;;;9.70;99.90;;;;;;5093304;28;20028;-61
2021/12/29 01:10:19;;;;;;;12.48;5.38;;;9.70;99.90;;;;;;5093505;28;20028;-61
2021/12/29 01:13:29;;;;;;;8.23;4.03;;;9.70;99.90;;;;;;5093402;28;20031;-62
2021/12/29 01:15:57;;;;;;;13.40;4.65;;;9.70;99.90;;;;;;5089948;28;20077;-62
2021/12/29 01:18:24;;;;;;;13.50;5.03;;;9.70;99.90;;;;;;5093064;28;20016;-62
2021/12/29 01:20:49;;;;;;;10.90;5.38;;;9.70;99.90;;;;;;5093010;28;20028;-62
2021/12/29 01:23:15;;;;;;;13.98;5.60;;;9.70;99.90;;;;;;5092844;28;20514;-61
2021/12/29 01:25:40;;;;;;;13.98;4.88;;;9.70;99.90;;;;;;5074698;28;20488;-62
2021/12/29 01:28:06;;;;;;;11.23;4.43;;;9.80;99.90;;;;;;5092925;28;20498;-62
2021/12/29 01:30:31;;;;;;;13.30;5.65;;;9.70;99.90;;;;;;5092792;28;20486;-62
2021/12/29 01:33:00;;;;;;;10.45;5.35;;;9.70;99.90;;;;;;5092774;28;20032;-62
2021/12/29 01:35:25;;;;;;;9.40;4.60;;;9.70;99.90;;;;;;5074576;28;20053;-61
2021/12/29 01:37:51;;;;;;;9.40;4.60;;;9.70;99.90;;;;;;5092845;28;20032;-62
2021/12/29 01:40:18;;;;;;;10.27;5.05;;;9.70;99.90;;;;;;5092618;28;20584;-62
2021/12/29 01:42:44;;;;;;;11.45;5.13;;;9.70;99.90;;;;;;5092779;28;20134;-62
2021/12/29 01:45:11;;;;;;;9.25;4.63;;;9.70;99.90;;;;;;5066362;28;20391;-62
2021/12/29 01:47:37;;;;;;;7.60;4.30;;;9.80;99.90;;;;;;5072466;28;20036;-62
2021/12/29 01:50:04;;;;;;;7.75;4.32;;;9.70;99.90;;;;;;5078987;28;20055;-62
2021/12/29 01:52:36;;;;;;;11.07;3.95;;;9.70;99.90;;;;;;5092417;28;20035;-62
2021/12/29 01:55:03;;;;;;;7.32;3.65;;;9.70;99.90;;;;;;5092569;28;20023;-62
2021/12/29 01:57:29;;;;;;;7.60;3.53;;;9.70;99.90;;;;;;5092286;28;20115;-62
2021/12/29 01:59:55;;;;;;;8.55;3.60;;;9.80;99.90;;;;;;5092516;28;20132;-62
2021/12/29 02:02:20;;;;;;;10.65;3.70;;;9.70;99.90;;;;;;5092166;28;20035;-62
2021/12/29 02:04:47;;;;;;;9.35;4.00;;;9.70;99.90;;;;;;5092425;28;20035;-61
2021/12/29 02:07:13;;;;;;;8.13;3.83;;;9.70;99.90;;;;;;5092177;28;20026;-62
2021/12/29 02:09:39;;;;;;;8.80;3.90;;;9.70;99.90;;;;;;5092159;28;20081;-61
2021/12/29 02:12:06;;;;;;;10.05;4.07;;;9.70;99.90;;;;;;5092306;28;20427;-62
2021/12/29 02:14:33;;;;;;;8.82;4.25;;;9.70;99.90;;;;;;5092173;28;20017;-62
2021/12/29 02:17:00;;;;;;;8.63;3.55;;;9.70;99.90;;;;;;5092347;28;20031;-62
2021/12/29 02:19:26;;;;;;;9.00;4.05;;;9.70;99.90;;;;;;5092068;28;20016;-62
2021/12/29 02:22:04;;;;;;;9.13;4.63;;;9.70;99.90;;;;;;5091934;28;20078;-62
2021/12/29 02:24:39;;;;;;;8.82;3.90;;;9.70;99.90;;;;;;5091914;28;20408;-61
2021/12/29 02:27:06;;;;;;;8.18;4.07;;;9.70;99.90;;;;;;5074049;28;20020;-61
2021/12/29 02:29:33;;;;;;;12.43;4.82;;;9.70;99.90;;;;;;5092011;28;20051;-62
2021/12/29 02:32:00;;;;;;;10.40;4.30;;;9.70;99.90;;;;;;5091924;28;20291;-62
2021/12/29 02:34:26;;;;;;;11.70;4.72;;;9.80;99.90;;;;;;5091588;28;20054;-62
2021/12/29 02:36:51;;;;;;;11.73;4.38;;;9.80;99.90;;;;;;5074374;28;20060;-62
2021/12/29 02:39:20;;;;;;;9.15;4.35;;;9.70;99.90;;;;;;5098298;28;20046;-62
2021/12/29 02:41:51;;;;;;;12.07;4.45;;;9.80;99.90;;;;;;5098633;28;20110;-61
2021/12/29 02:44:24;;;;;;;9.20;4.50;;;9.80;99.90;;;;;;5098606;28;20016;-62
2021/12/29 02:46:50;;;;;;;7.85;3.72;;;9.80;99.90;;;;;;5081578;28;20024;-62
2021/12/29 02:49:15;;;;;;;11.40;3.85;;;9.80;99.90;;;;;;5098347;28;20035;-61
2021/12/29 02:51:41;;;;;;;8.50;3.65;;;9.80;99.90;;;;;;5080325;28;20081;-62
2021/12/29 02:54:07;;;;;;;7.97;3.80;;;9.80;99.90;;;;;;5098471;28;20068;-62
2021/12/29 02:56:33;;;;;;;6.40;3.28;;;9.80;99.90;;;;;;5098499;28;20081;-62
2021/12/29 02:58:58;;;;;;;9.93;3.50;;;9.80;99.90;;;;;;5098484;28;20032;-62
2021/12/29 03:01:27;;;;;;;10.32;3.20;;;9.80;99.90;;;;;;5098390;28;20050;-61
2021/12/29 03:03:53;;;;;;;7.82;3.95;;;9.80;99.90;;;;;;5098460;28;20044;-62
2021/12/29 03:06:19;;;;;;;5.32;3.17;;;9.80;99.90;;;;;;5098463;28;20035;-62
2021/12/29 03:08:45;;;;;;;8.57;2.95;;;9.80;99.90;;;;;;5098393;28;20020;-62
2021/12/29 03:11:11;;;;;;;9.93;3.92;;;9.80;99.90;;;;;;5098583;28;20035;-62
2021/12/29 03:13:38;;;;;;;6.85;3.42;;;9.80;99.90;;;;;;5098301;28;20047;-62
2021/12/29 03:16:04;;;;;;;6.22;3.20;;;9.80;99.90;;;;;;5098152;28;20023;-62
2021/12/29 03:18:30;;;;;;;6.60;3.60;;;9.80;99.90;;;;;;5098346;28;20028;-61
2021/12/29 03:20:57;;;;;;;6.85;4.40;;;9.80;99.90;;;;;;5098485;28;20024;-62
2021/12/29 03:23:22;;;;;;;7.43;4.18;;;9.80;99.90;;;;;;5098109;28;20127;-62
2021/12/29 03:25:49;;;;;;;8.68;3.53;;;9.80;99.90;;;;;;5080191;28;20506;-62
2021/12/29 03:28:20;;;;;;;11.65;4.85;;;9.80;99.90;;;;;;5098338;28;20033;-61
2021/12/29 03:30:49;;;;;;;8.18;4.65;;;9.80;99.90;;;;;;5098297;28;20032;-62
2021/12/29 03:33:15;;;;;;;13.68;5.65;;;9.70;99.90;;;;;;5098100;28;20051;-62
2021/12/29 03:35:46;;;;;;;11.32;5.82;;;9.70;99.90;;;;;;5080114;28;20028;-62
2021/12/29 03:38:15;;;;;;;7.82;5.47;;;9.70;99.90;;;;;;5098333;28;20429;-61
2021/12/29 03:40:42;;;;;;;9.25;5.60;;;9.70;99.90;;;;;;5098155;28;20502;-61
2021/12/29 03:43:09;;;;;;;9.27;5.93;;;9.70;99.90;;;;;;5097971;28;20035;-62
2021/12/29 03:45:37;;;;;;;11.70;6.35;;;9.70;99.90;;;;;;5079834;28;20028;-61
2021/12/29 03:48:04;;;;;;;9.38;5.95;;;9.70;99.90;;;;;;5098182;28;20043;-62
2021/12/29 03:50:30;;;;;;;7.35;5.82;;;9.70;99.90;;;;;;5094715;28;20115;-62
2021/12/29 03:52:56;;;;;;;9.38;5.85;;;9.60;99.90;;;;;;5076900;28;20124;-62
2021/12/29 03:55:21;;;;;;;9.02;5.18;;;9.60;99.90;;;;;;5094700;28;20020;-61
2021/12/29 03:57:47;;;;;;;7.05;4.93;;;9.60;99.90;;;;;;5094583;28;20024;-62
2021/12/29 04:00:16;;;;;;;8.63;5.10;;;9.60;99.90;;;;;;5076439;28;20024;-62
2021/12/29 04:02:43;;;;;;;6.65;4.70;;;9.60;99.90;;;;;;5094705;28;20131;-62
2021/12/29 04:05:11;;;;;;;7.63;5.28;;;9.60;99.90;;;;;;5094496;28;20027;-62
2021/12/29 04:07:37;;;;;;;8.90;5.30;;;9.60;99.90;;;;;;5094449;28;20032;-62
2021/12/29 04:10:05;;;;;;;6.95;4.57;;;9.60;99.90;;;;;;5094388;28;20028;-62
2021/12/29 04:12:30;;;;;;;7.47;5.03;;;9.60;99.90;;;;;;5094385;28;20484;-62
2021/12/29 04:14:56;;;;;;;6.47;4.20;;;9.60;99.90;;;;;;5094462;28;20145;-62
2021/12/29 04:17:28;;;;;;;6.63;4.65;;;9.60;99.90;;;;;;5094294;28;20023;-62
2021/12/29 04:22:38;;;;;;;6.50;4.20;;;9.60;99.90;;;;;;5094144;28;20036;-62
2021/12/29 04:25:04;;;;;;;6.35;3.58;;;9.60;99.90;;;;;;5094093;28;20043;-62
2021/12/29 04:27:30;;;;;;;5.95;4.05;;;9.60;99.90;;;;;;5094153;28;20028;-62
2021/12/29 04:29:55;;;;;;;5.28;3.80;;;9.60;99.90;;;;;;5094392;28;20028;-62
2021/12/29 04:32:21;;;;;;;5.38;4.15;;;9.60;99.90;;;;;;5094024;28;20035;-62
2021/12/29 04:34:47;;;;;;;6.15;4.93;;;9.60;99.90;;;;;;5094474;28;20031;-62
2021/12/29 04:37:12;;;;;;;7.80;6.38;;;9.60;99.90;;;;;;5093656;28;20031;-62
2021/12/29 04:39:38;;;;;;;10.52;7.78;;;9.60;99.90;;;;;;5093998;28;20517;-62
2021/12/29 04:42:04;;;;;;;9.73;7.03;;;9.60;99.90;;;;;;5093915;28;20387;-61
2021/12/29 04:44:29;;;;;;;8.52;7.32;;;9.50;99.90;;;;;;5093688;28;20035;-62
2021/12/29 04:46:57;;;;;;;10.35;8.30;;;9.60;99.90;;;;;;5075711;28;20028;-61
2021/12/29 04:49:27;;;;;;;10.23;7.53;;;9.60;99.90;;;;;;5075945;28;20443;-62
2021/12/29 04:52:03;;;;;;;10.18;8.07;;;9.60;99.90;;;;;;5093332;28;20019;-61
2021/12/29 04:54:30;;;;;;;8.88;7.93;;;9.60;99.90;;;;;;5075251;28;20020;-62
2021/12/29 04:56:56;;;;;;;10.70;7.38;;;9.60;99.90;;;;;;5093677;28;20024;-62
2021/12/29 04:59:23;;;;;;;10.05;7.60;;;9.60;99.90;;;;;;5075371;28;20028;-62
2021/12/29 05:01:49;;;;;;;9.55;7.38;;;9.60;99.90;;;;;;5093046;28;20028;-62
2021/12/29 05:04:31;;;;;;;8.18;6.75;;;9.60;99.90;;;;;;5093270;28;20481;-62
2021/12/29 05:09:40;;;;;;;9.98;8.00;;;9.60;99.90;;;;;;5078288;28;20070;-62
2021/12/29 05:12:07;;;;;;;8.93;7.32;;;9.50;99.90;;;;;;5093245;28;20028;-62
2021/12/29 05:14:33;;;;;;;12.00;7.93;;;9.50;99.90;;;;;;5093075;28;20036;-62
2021/12/29 05:16:58;;;;;;;9.10;7.05;;;9.50;99.90;;;;;;5093231;28;20376;-62
2021/12/29 05:19:24;;;;;;;10.02;7.07;;;9.50;99.90;;;;;;5093124;28;20024;-62
2021/12/29 05:21:50;;;;;;;11.82;8.20;;;9.50;99.90;;;;;;5092977;28;20032;-62
2021/12/29 05:24:16;;;;;;;9.48;8.35;;;9.50;99.90;;;;;;5092724;28;20062;-62
2021/12/29 05:26:41;;;;;;;10.07;7.80;;;9.50;99.90;;;;;;5074974;28;20577;-62
2021/12/29 05:29:07;;;;;;;9.45;8.50;;;9.50;99.90;;;;;;5092997;28;20024;-61
2021/12/29 05:31:32;;;;;;;10.45;8.23;;;9.50;99.90;;;;;;5092718;28;20543;-62
2021/12/29 05:33:58;;;;;;;10.52;9.15;;;9.50;99.90;;;;;;5074622;28;20168;-62
2021/12/29 05:36:24;;;;;;;10.93;7.95;;;9.50;99.90;;;;;;5092551;28;20491;-62
2021/12/29 05:38:53;;;;;;;10.20;7.97;;;9.50;99.90;;;;;;5092206;28;20035;-62
2021/12/29 05:41:19;;;;;;;11.60;8.68;;;9.50;99.90;;;;;;5092491;28;20057;-62
2021/12/29 05:43:45;;;;;;;12.07;8.93;;;9.40;99.90;;;;;;5092090;28;20024;-62
2021/12/29 05:46:10;;;;;;;13.98;9.20;;;9.40;99.90;;;;;;5092566;28;20036;-62
2021/12/29 05:48:36;;;;;;;11.15;8.57;;;9.50;99.90;;;;;;5092711;28;20553;-62
2021/12/29 05:51:02;;;;;;;10.63;9.10;;;9.50;99.90;;;;;;5092515;28;20111;-62
2021/12/29 05:53:27;;;;;;;14.82;9.07;;;9.50;99.90;;;;;;5092122;28;20074;-62
2021/12/29 05:55:53;;;;;;;11.20;8.52;;;9.40;99.90;;;;;;5092534;28;20024;-62
2021/12/29 05:58:18;;;;;;;11.00;8.23;;;9.40;99.90;;;;;;5092242;28;20103;-62
2021/12/29 06:00:44;;;;;;;11.52;7.90;;;9.40;99.90;;;;;;5092406;28;20039;-62
2021/12/29 06:03:10;;;;;;;16.08;9.80;;;9.50;99.90;;;;;;5092346;28;20044;-62
2021/12/29 06:05:36;;;;;;;11.45;8.50;;;9.50;99.90;;;;;;5074192;28;20024;-62
2021/12/29 06:08:02;;;;;;;11.82;8.63;;;9.50;99.90;;;;;;5092201;28;20035;-62
2021/12/29 06:10:29;;;;;;;16.17;8.32;;;9.50;99.90;;;;;;5092065;28;20032;-62
2021/12/29 06:12:55;;;;;;;11.88;8.25;;;9.50;99.90;;;;;;5091387;28;20016;-62
2021/12/29 06:15:21;;;;;;;12.25;9.18;;;9.50;99.90;;;;;;5092195;28;20103;-62
2021/12/29 06:17:46;;;;;;;13.50;8.98;;;9.50;99.90;;;;;;5073994;28;20483;-62
2021/12/29 06:20:12;;;;;;;10.90;8.40;;;9.40;99.90;;;;;;5092212;28;20518;-62
2021/12/29 06:22:39;;;;;;;12.60;8.77;;;9.40;99.90;;;;;;5091883;28;20028;-62
2021/12/29 06:25:07;;;;;;;13.57;9.55;;;9.40;99.90;;;;;;5091910;28;20048;-61
2021/12/29 06:27:32;;;;;;;15.27;9.48;;;9.40;99.90;;;;;;5091909;28;20069;-62
2021/12/29 06:29:58;;;;;;;13.77;8.98;;;9.40;99.90;;;;;;5092021;28;20041;-62
2021/12/29 06:32:25;;;;;;;16.90;9.15;;;9.50;99.90;;;;;;5091991;28;20024;-61
2021/12/29 06:34:51;;;;;;;13.98;8.38;;;9.40;99.90;;;;;;5091930;28;20020;-62
2021/12/29 06:37:17;;;;;;;11.48;8.27;;;9.40;99.90;;;;;;5091764;28;20535;-62
2021/12/29 06:39:45;;;;;;;16.63;9.32;;;9.40;99.90;;;;;;5073679;28;20107;-62
2021/12/29 06:42:10;;;;;;;11.40;9.00;;;9.40;99.90;;;;;;5069413;28;20047;-62
2021/12/29 06:44:38;;;;;;;11.50;7.88;;;9.50;99.90;;;;;;5066448;28;20531;-62
2021/12/29 06:47:03;;;;;;;10.55;7.32;;;9.40;99.90;;;;;;5073381;28;20103;-62
2021/12/29 06:49:29;;;;;;;14.82;8.60;;;9.40;99.90;;;;;;5071928;28;20115;-61
2021/12/29 06:51:55;;;;;;;11.52;8.70;;;9.40;99.90;;;;;;5080275;28;20081;-62
2021/12/29 06:54:20;;;;;;;11.98;8.63;;;9.40;99.90;;;;;;5055409;28;20527;-62
2021/12/29 06:56:53;;;;;;;13.77;8.13;;;9.40;99.90;;;;;;5087715;28;20098;-62
2021/12/29 06:59:19;;;;;;;11.68;7.85;;;9.40;99.90;;;;;;5069277;28;20020;-62
2021/12/29 07:01:44;;;;;;;13.10;9.30;;;9.40;99.90;;;;;;5087534;28;20028;-62
2021/12/29 07:04:10;;;;;;;13.38;9.30;;;9.40;99.90;;;;;;5090338;28;20470;-62
2021/12/29 07:06:36;;;;;;;13.13;9.07;;;9.30;99.90;;;;;;5072185;28;20081;-62
2021/12/29 07:09:02;;;;;;;16.58;8.85;;;9.30;99.90;;;;;;5087228;28;20055;-62
2021/12/29 07:11:27;;;;;;;13.07;8.85;;;9.30;99.90;;;;;;5087014;28;20464;-62
2021/12/29 07:13:53;;;;;;;15.35;9.27;;;9.40;99.90;;;;;;5087501;28;20024;-62
2021/12/29 07:16:18;;;;;;;13.32;8.65;;;9.40;99.90;;;;;;5084724;28;20115;-61
2021/12/29 07:18:46;;;;;;;17.33;8.50;;;9.40;99.90;;;;;;5084818;28;20024;-62
2021/12/29 07:21:12;;;;;;;15.57;8.70;;;9.40;99.90;;;;;;5087296;28;20379;-62
2021/12/29 07:23:37;;;;;;;16.73;8.70;;;9.40;99.90;;;;;;5090531;28;20052;-61
2021/12/29 07:26:03;;;;;;;14.30;9.63;;;9.30;99.90;;;;;;5061710;28;20106;-62
2021/12/29 07:28:28;;;;;;;10.45;8.05;;;9.40;99.90;;;;;;5075707;28;20369;-62
2021/12/29 07:30:54;;;;;;;15.45;8.70;;;9.40;99.90;;;;;;5091296;28;20073;-62
2021/12/29 07:33:19;;;;;;;14.75;9.77;;;9.30;99.90;;;;;;5090820;28;20035;-61
2021/12/29 07:35:45;;;;;;;20.02;9.75;;;9.30;99.90;;;;;;5075621;28;20024;-61
2021/12/29 07:38:10;;;;;;;17.88;11.30;;;9.40;99.90;;;;;;5075919;28;20024;-62
2021/12/29 07:40:36;;;;;;;11.50;9.25;;;9.30;99.90;;;;;;5094881;28;20154;-62
2021/12/29 07:43:02;;;;;;;14.10;9.18;;;9.30;99.90;;;;;;5091543;28;20020;-62
2021/12/29 07:45:28;;;;;;;18.90;9.95;;;9.30;99.90;;;;;;5091184;28;20028;-62
2021/12/29 07:47:54;;;;;;;16.35;8.80;;;9.30;99.90;;;;;;5092858;28;20016;-62
2021/12/29 07:50:21;;;;;;;18.45;9.25;;;9.30;99.90;;;;;;5091809;28;20031;-62
2021/12/29 07:52:48;;;;;;;13.80;9.57;;;9.30;99.90;;;;;;5071126;28;20098;-62
2021/12/29 07:55:19;;;;;;;15.43;9.18;;;9.30;99.90;;;;;;5082417;28;20016;-62
2021/12/29 07:58:08;;;;;;;15.27;10.25;;;9.40;99.90;;;;;;5081396;28;20435;-62
2021/12/29 08:00:34;;;;;;;;;;;9.40;99.90;;;;;;5089207;28;20510;-62
2021/12/29 08:03:00;;;;;;;15.65;9.80;;;9.30;99.90;;;;;;5086421;28;19916;-62
2021/12/29 08:05:25;;;;;;;15.88;8.73;;;9.30;99.90;;;;;;5077733;28;20028;-62
2021/12/29 08:07:51;;;;;;;12.30;8.50;;;9.30;99.90;;;;;;5071227;28;20024;-63
2021/12/29 08:10:27;;;;;;;11.95;8.40;;;9.30;99.90;;;;;;5074595;28;20108;-62
2021/12/29 08:13:04;;;;;;;13.63;8.43;;;9.30;99.90;;;;;;5082860;28;20020;-62
2021/12/29 08:15:32;;;;;;;14.20;9.65;;;9.30;99.90;;;;;;5062068;28;20079;-62
2021/12/29 08:18:02;;;;;;;14.30;8.90;;;9.30;99.90;;;;;;5068137;28;20027;-62
2021/12/29 08:20:28;;;;;;;;;;;9.40;99.90;;;;;;5085236;28;20111;-61
2021/12/29 08:22:53;;;;;;;13.93;8.30;;;9.40;99.90;;;;;;5078639;28;20014;-62
2021/12/29 08:25:19;;;;;;;13.30;8.45;;;9.30;99.90;;;;;;5065399;28;20386;-62
2021/12/29 08:27:45;;;;;;;11.23;7.75;;;9.40;99.90;;;;;;5086386;28;20080;-62
2021/12/29 08:30:11;;;;;;;10.52;7.95;;;9.40;99.90;;;;;;5082463;28;20036;-62
2021/12/29 08:32:37;;;;;;;12.98;8.15;;;9.40;99.90;;;;;;5084531;28;20036;-61
2021/12/29 08:35:04;;;;;;;11.80;7.55;;;9.40;99.90;;;;;;5076672;28;20373;-62
2021/12/29 08:37:37;;;;;;;14.25;8.75;;;9.40;99.90;;;;;;5080865;28;20186;-62
2021/12/29 08:40:04;;;;;;;14.35;10.07;;;9.50;99.90;;;;;;5054815;28;20059;-62
2021/12/29 08:42:31;;;;;;;13.60;8.75;;;9.50;99.90;;;;;;5086927;28;20032;-62
2021/12/29 08:44:56;;;;;;;12.05;8.52;;;9.50;99.90;;;;;;5083226;28;20480;-62
2021/12/29 08:47:36;;;;;;;11.90;9.05;;;9.50;99.90;;;;;;5086860;28;20138;-61
2021/12/29 08:53:48;;;;;;;17.15;9.88;;;9.50;99.90;;;;;;5041709;28;20025;-62
2021/12/29 08:56:16;;;;;;;13.95;9.38;;;9.40;99.90;;;;;;5073879;28;20041;-62
2021/12/29 08:58:43;;;;;;;19.83;10.55;;;9.40;99.90;;;;;;5077954;28;20082;-62
2021/12/29 09:01:09;;;;;;;16.63;10.38;;;9.40;99.90;;;;;;5083914;28;20090;-62
2021/12/29 09:03:34;;;;;;;12.88;9.63;;;9.40;99.90;;;;;;5065264;28;20450;-62
2021/12/29 09:06:11;;;;;;;12.27;9.40;;;9.40;99.90;;;;;;5068149;28;20032;-62
2021/12/29 09:08:37;;;;;;;15.32;11.48;;;9.40;99.90;;;;;;5107768;28;20034;-62
2021/12/29 09:11:03;;;;;;;14.60;10.13;;;9.40;99.90;;;;;;5066582;28;20028;-61
2021/12/29 09:13:29;;;;;;;13.75;8.90;;;9.40;99.90;;;;;;5084419;28;20078;-62
2021/12/29 09:15:56;;;;;;;16.90;9.77;;;9.40;99.90;;;;;;5083543;28;20499;-62
2021/12/29 09:18:27;;;;;;;14.40;9.60;;;9.50;99.90;;;;;;5060534;28;20674;-62
2021/12/29 09:20:55;;;;;;;12.63;8.75;;;9.50;99.90;;;;;;5087026;28;20056;-62
2021/12/29 09:23:21;;;;;;;12.27;8.57;;;9.50;99.90;;;;;;5081812;28;20040;-62
2021/12/29 09:25:47;;;;;;;12.07;8.98;;;9.50;99.90;;;;;;5080654;28;20453;-62
2021/12/29 09:28:20;;;;;;;15.38;9.65;;;9.50;99.90;;;;;;5085567;28;20028;-62
2021/12/29 09:30:47;;;;;;;14.38;9.63;;;9.50;99.90;;;;;;5085754;28;20036;-62
2021/12/29 09:33:15;;;;;;;16.08;10.32;;;9.40;99.90;;;;;;5066311;28;20028;-62
2021/12/29 09:35:41;;;;;;;14.38;9.13;;;9.40;99.90;;;;;;5070792;28;20495;-62
2021/12/29 09:38:14;;;;;;;13.35;9.77;;;9.40;99.90;;;;;;5083832;28;20030;-62
2021/12/29 09:40:40;;;;;;;13.82;9.10;;;9.40;99.90;;;;;;5064716;28;20081;-62
2021/12/29 09:43:07;;;;;;;13.30;9.65;;;9.40;99.90;;;;;;5088295;28;20028;-67
2021/12/29 09:46:13;;;;;;;;;;;;;;;;;;;;;
2021/12/29 09:48:40;;;;;;;12.68;8.77;;;9.40;99.90;;;;;;5083714;28;20414;-62
2021/12/29 09:51:08;;;;;;;14.32;8.60;;;9.30;99.90;;;;;;5082754;28;20024;-64
2021/12/29 09:53:53;;;;;;;14.98;8.63;;;9.40;99.90;;;;;;5085542;28;20115;-62
2021/12/29 09:56:18;;;;;;;12.30;7.90;;;9.40;99.90;;;;;;5086283;28;20069;-62
2021/12/29 09:59:19;;;;;;;14.40;7.60;;;9.40;99.90;;;;;;5097647;28;20032;-63
2021/12/29 10:01:44;;;;;;;9.90;6.97;;;9.50;99.90;;;;;;5094105;28;20020;-62
2021/12/29 10:04:13;;;;;;;11.90;7.72;;;9.50;99.90;;;;;;5106494;28;20074;-62
2021/12/29 10:06:38;;;;;;;11.45;8.10;;;9.50;99.90;;;;;;5099456;28;20098;-62
2021/12/29 10:09:14;;;;;;;9.98;7.18;;;9.50;99.90;;;;;;5099017;28;20095;-62
2021/12/29 10:12:18;;;;;;;9.93;7.43;;;9.50;99.90;;;;;;5107341;28;20027;-62
2021/12/29 10:14:53;;;;;;;12.50;6.80;;;9.60;99.90;;;;;;5100034;28;20028;-62
2021/12/29 10:17:19;;;;;;;11.48;7.97;;;9.50;99.90;;;;;;5107854;28;20023;-62
2021/12/29 10:19:45;;;;;;;8.45;6.72;;;9.50;99.90;;;;;;5093887;28;20020;-62
2021/12/29 10:22:32;;;;;;;10.02;7.18;;;9.60;99.90;;;;;;5106026;28;20131;-62
2021/12/29 10:25:19;;;;;;;10.48;7.93;;;9.70;99.90;;;;;;5081088;28;20457;-63
2021/12/29 10:27:44;;;;;;;17.50;8.73;;;9.70;99.90;;;;;;5094121;28;20077;-62
2021/12/29 10:30:18;;;;;;;10.80;7.95;;;9.70;99.90;;;;;;5105709;28;20414;-63
2021/12/29 10:33:17;;;;;;;10.75;8.32;;;9.80;99.90;;;;;;5082322;28;20023;-62
2021/12/29 10:35:43;;;;;;;9.27;6.90;;;9.90;99.90;;;;;;5088676;28;20773;-62
2021/12/29 10:38:21;;;;;;;12.57;7.57;;;9.80;99.90;;;;;;5106271;28;20050;-62
2021/12/29 10:40:47;;;;;;;13.50;8.20;;;9.90;99.90;;;;;;5099776;28;20040;-62
2021/12/29 10:43:13;;;;;;;13.98;8.35;;;9.90;99.90;;;;;;5097714;28;20027;-62
2021/12/29 10:45:41;;;;;;;10.60;8.60;;;9.80;99.90;;;;;;5090884;28;20024;-62
2021/12/29 10:48:33;;;;;;;11.10;8.77;;;9.80;99.90;;;;;;5090771;28;20035;-62
2021/12/29 10:51:06;;;;;;;16.75;9.70;;;9.80;99.90;;;;;;5081768;28;20071;-62
2021/12/29 10:53:36;;;;;;;11.88;9.23;;;9.80;99.90;;;;;;5072933;28;20020;-63
2021/12/29 10:56:02;;;;;;;;;;;9.80;99.90;;;;;;5073510;28;20030;-62
2021/12/29 10:58:32;;;;;;;12.63;9.00;;;9.70;99.90;;;;;;5091150;28;19904;-62
2021/12/29 11:01:07;;;;;;;13.15;9.85;;;9.70;99.90;;;;;;5095366;28;20032;-62
2021/12/29 11:03:35;;;;;;;10.98;8.63;;;9.80;99.90;;;;;;5095377;28;20028;-62
2021/12/29 11:06:03;;;;;;;17.77;9.18;;;9.80;99.90;;;;;;5077409;28;20118;-62
2021/12/29 11:08:45;;;;;;;11.93;8.45;;;9.80;99.90;;;;;;5060367;28;20047;-62
2021/12/29 11:11:11;;;;;;;13.32;9.55;;;9.80;99.90;;;;;;5076685;28;20032;-63
2021/12/29 11:13:36;;;;;;;14.27;9.40;;;9.80;99.90;;;;;;5094977;28;20387;-62
2021/12/29 11:16:30;;;;;;;13.05;9.25;;;9.80;99.90;;;;;;5094751;28;20158;-62
2021/12/29 11:19:17;;;;;;;11.05;8.93;;;9.90;99.90;;;;;;5094865;28;20020;-63
2021/12/29 11:21:43;;;;;;;16.90;9.82;;;9.80;99.90;;;;;;5072373;28;20030;-62
2021/12/29 11:24:23;;;;;;;11.10;9.43;;;9.80;99.90;;;;;;5076460;28;20048;-62
2021/12/29 11:26:49;;;;;;;10.35;8.52;;;9.90;99.90;;;;;;5107773;28;20479;-63
2021/12/29 11:29:17;;;;;;;10.63;8.40;;;9.90;99.90;;;;;;5095807;28;20799;-62
2021/12/29 11:35:22;;;;;;;12.00;7.78;;;10.00;99.90;;;;;;5094008;28;20470;-62
2021/12/29 11:38:07;;;;;;;11.35;8.32;;;9.90;99.90;;;;;;5085983;28;20024;-62
2021/12/29 11:41:02;;;;;;;11.15;7.45;;;10.00;99.90;;;;;;5102091;28;20122;-62
2021/12/29 11:43:27;;;;;;;12.60;7.28;;;9.90;99.90;;;;;;5002541;28;20073;-62
2021/12/29 11:45:56;;;;;;;11.90;7.00;;;9.90;99.90;;;;;;5099701;28;20027;-62
2021/12/29 11:48:23;;;;;;;13.60;7.38;;;9.90;99.90;;;;;;5103165;28;20031;-63
2021/12/29 11:50:52;;;;;;;12.80;7.57;;;9.80;99.90;;;;;;5107445;28;20097;-62
2021/12/29 11:53:32;;;;;;;11.57;7.40;;;9.80;99.90;;;;;;5095206;28;20024;-62
2021/12/29 11:56:08;;;;;;;12.63;8.15;;;9.80;99.90;;;;;;5094712;28;20100;-62
2021/12/29 11:58:41;;;;;;;11.10;8.18;;;9.80;99.90;;;;;;5093268;28;20023;-63
2021/12/29 12:01:44;;;;;;;11.20;7.90;;;9.70;99.90;;;;;;5072622;28;20058;-62
2021/12/29 12:04:11;;;;;;;11.70;8.00;;;9.70;99.90;;;;;;5085303;28;20056;-62
2021/12/29 12:06:40;;;;;;;16.40;8.13;;;9.70;99.90;;;;;;5092008;28;20028;-62
2021/12/29 12:09:17;;;;;;;11.77;7.63;;;9.70;99.90;;;;;;5088997;28;20101;-62
2021/12/29 12:11:48;;;;;;;13.45;7.78;;;9.70;99.90;;;;;;5091873;28;20024;-62
2021/12/29 12:14:17;;;;;;;10.38;7.22;;;9.70;99.90;;;;;;5093588;28;20488;-63
2021/12/29 12:16:54;;;;;;;11.32;6.57;;;9.70;99.90;;;;;;5089118;28;20032;-63
2021/12/29 12:19:22;;;;;;;13.52;7.55;;;9.70;99.90;;;;;;5094504;28;20042;-62
2021/12/29 12:22:44;;;;;;;11.38;6.32;;;9.70;99.90;;;;;;5090628;28;20030;-62
2021/12/29 12:25:11;;;;;;;13.18;6.85;;;9.70;99.90;;;;;;4996218;28;20046;-63
2021/12/29 12:27:43;;;;;;;10.10;6.82;;;9.60;99.90;;;;;;5062067;28;20097;-62
2021/12/29 12:30:18;;;;;;;12.85;6.28;;;9.60;99.90;;;;;;5078510;28;20536;-62
2021/12/29 12:33:25;;;;;;;;;;;;;;;;;;;;;
2021/12/29 12:35:53;;;;;;;14.27;7.47;;;9.70;99.90;;;;;;5076334;28;20487;-62
2021/12/29 12:38:27;;;;;;;14.95;7.43;;;9.60;99.90;;;;;;5082176;28;20048;-62
2021/12/29 12:41:16;;;;;;;15.60;8.30;;;9.60;99.90;;;;;;5086376;28;20103;-62
2021/12/29 12:43:52;;;;;;;12.18;7.50;;;9.60;99.90;;;;;;5061182;28;20024;-63
2021/12/29 12:46:41;;;;;;;17.15;7.60;;;9.50;99.90;;;;;;5082744;28;20025;-62
2021/12/29 12:49:26;;;;;;;17.73;8.02;;;9.50;99.90;;;;;;5067734;28;20028;-63
2021/12/29 12:52:02;;;;;;;14.50;7.32;;;9.50;99.90;;;;;;5069024;28;20029;-62
2021/12/29 12:54:33;;;;;;;12.65;7.10;;;9.50;99.90;;;;;;5068682;28;20036;-63
2021/12/29 12:56:59;;;;;;;18.63;8.93;;;9.50;99.90;;;;;;5071509;28;20024;-62
2021/12/29 12:59:42;;;;;;;13.80;6.60;;;9.40;99.90;;;;;;5069730;28;20177;-62
2021/12/29 13:02:48;;;;;;;12.55;6.78;;;9.50;99.90;;;;;;5071626;28;20024;-62
2021/12/29 13:05:17;;;;;;;18.10;6.55;;;9.40;99.90;;;;;;5073296;28;20021;-62
2021/12/29 13:07:51;;;;;;;15.43;6.53;;;9.40;99.90;;;;;;5069116;28;20032;-62
2021/12/29 13:10:28;;;;;;;11.77;5.95;;;9.40;99.90;;;;;;5070850;28;20480;-62
2021/12/29 13:12:58;;;;;;;10.30;5.97;;;9.40;99.90;;;;;;5068777;28;20016;-62
2021/12/29 13:15:26;;;;;;;14.27;5.85;;;9.40;99.90;;;;;;5070512;28;20047;-62
2021/12/29 13:17:53;;;;;;;11.10;5.97;;;9.40;99.90;;;;;;5077256;28;20442;-62